Central, Brazil
Current Conditions -  °F | °C
As of 12:00 PM on Monday 24 Nov 2014 (Local Time) from SBPL Reporting Station
Scattered Clouds Scattered Clouds  
Wind Chill: 91°   Ceiling: Unl
Heat Index: 95°   Visibility: 6mi
Dew Point: 68°   Wind: 7mph
Humidity: 46%   Direction: 160°SSE
Pressure: 29.97"   Gusts: NA
Location:  11.14°S, 42.11°W
Report Text: SBPL 241500Z 16006KT 9999 SCT027 33/20 Q1015
Loading
Personal Weather Stations






























Interactive Weather Map New forecast layout! Learn more

10-Day Weather Forecast

Advertisements
Track Severe Weather on mobile